Terminal Aerodrome Forecast
Issued by NWS Wilmington, OH

Current Version | Previous Version | Text Only | Print | Product List | Glossary Off
Versions: 1 2 3 4 5 6 7 8 9 10 11 12 13 14 15 16 17 18 19 20 21 22 23

416
FTUS41 KILN 212058 AAB
TAFCVG
TAF AMD
KCVG 212058Z 2121/2224 21008KT P6SM VCTS BKN035CB
     FM212200 25010KT P6SM BKN035
     FM212300 25009KT P6SM SCT035
     FM220100 29007KT P6SM SCT035
     FM221600 28008KT P6SM FEW040 SCT250=

USA.gov is the U.S. government's official web portal to all federal, state and local government web resources and services.